sensor_id;sensor_type;location;lat;lon;timestamp;pressure;altitude;pressure_sealevel;temperature
19644;BMP180;9970;-36.854;174.870;2023-10-19T00:00:31;101780.00;;;21.20
19644;BMP180;9970;-36.854;174.870;2023-10-19T00:03:10;101784.00;;;21.20
19644;BMP180;9970;-36.854;174.870;2023-10-19T00:06:01;101776.00;;;21.20
19644;BMP180;9970;-36.854;174.870;2023-10-19T00:08:37;101783.00;;;21.20
19644;BMP180;9970;-36.854;174.870;2023-10-19T00:11:18;101785.00;;;21.20
19644;BMP180;9970;-36.854;174.870;2023-10-19T00:13:56;101781.00;;;21.20
19644;BMP180;9970;-36.854;174.870;2023-10-19T00:16:29;101770.00;;;21.20
19644;BMP180;9970;-36.854;174.870;2023-10-19T00:19:21;101774.00;;;21.20
19644;BMP180;9970;-36.854;174.870;2023-10-19T00:21:56;101779.00;;;21.20
19644;BMP180;9970;-36.854;174.870;2023-10-19T00:24:42;101780.00;;;21.20
19644;BMP180;9970;-36.854;174.870;2023-10-19T00:27:16;101771.00;;;21.20
19644;BMP180;9970;-36.854;174.870;2023-10-19T00:29:56;101756.00;;;21.20
19644;BMP180;9970;-36.854;174.870;2023-10-19T00:32:47;101759.00;;;21.30
19644;BMP180;9970;-36.854;174.870;2023-10-19T00:35:27;101761.00;;;21.30
19644;BMP180;9970;-36.854;174.870;2023-10-19T00:38:03;101752.00;;;21.30
19644;BMP180;9970;-36.854;174.870;2023-10-19T00:40:54;101765.00;;;21.30
19644;BMP180;9970;-36.854;174.870;2023-10-19T00:43:32;101767.00;;;21.30
19644;BMP180;9970;-36.854;174.870;2023-10-19T01:06:00;101757.00;;;21.40
19644;BMP180;9970;-36.854;174.870;2023-10-19T01:08:53;101754.00;;;21.40
19644;BMP180;9970;-36.854;174.870;2023-10-19T01:11:29;101758.00;;;21.40
19644;BMP180;9970;-36.854;174.870;2023-10-19T01:14:17;101756.00;;;21.30
19644;BMP180;9970;-36.854;174.870;2023-10-19T01:16:52;101753.00;;;21.30
19644;BMP180;9970;-36.854;174.870;2023-10-19T01:19:29;101746.00;;;21.30
19644;BMP180;9970;-36.854;174.870;2023-10-19T01:22:05;101741.00;;;21.30
19644;BMP180;9970;-36.854;174.870;2023-10-19T01:24:45;101727.00;;;21.30
19644;BMP180;9970;-36.854;174.870;2023-10-19T01:27:22;101735.00;;;21.30
19644;BMP180;9970;-36.854;174.870;2023-10-19T01:29:56;101732.00;;;21.30
19644;BMP180;9970;-36.854;174.870;2023-10-19T01:32:33;101731.00;;;21.30
19644;BMP180;9970;-36.854;174.870;2023-10-19T01:40:44;101722.00;;;21.30
19644;BMP180;9970;-36.854;174.870;2023-10-19T01:43:22;101716.00;;;21.20
19644;BMP180;9970;-36.854;174.870;2023-10-19T01:46:02;101705.00;;;21.20
19644;BMP180;9970;-36.854;174.870;2023-10-19T01:48:46;101699.00;;;21.20
19644;BMP180;9970;-36.854;174.870;2023-10-19T01:51:22;101690.00;;;21.20
19644;BMP180;9970;-36.854;174.870;2023-10-19T01:53:56;101690.00;;;21.10
19644;BMP180;9970;-36.854;174.870;2023-10-19T01:56:38;101687.00;;;21.10
19644;BMP180;9970;-36.854;174.870;2023-10-19T01:59:30;101696.00;;;21.10
19644;BMP180;9970;-36.854;174.870;2023-10-19T02:02:10;101695.00;;;21.10
19644;BMP180;9970;-36.854;174.870;2023-10-19T02:05:02;101687.00;;;21.00
19644;BMP180;9970;-36.854;174.870;2023-10-19T02:07:40;101695.00;;;21.00
19644;BMP180;9970;-36.854;174.870;2023-10-19T02:10:33;101702.00;;;21.00
19644;BMP180;9970;-36.854;174.870;2023-10-19T02:13:11;101686.00;;;21.00
19644;BMP180;9970;-36.854;174.870;2023-10-19T02:15:55;101682.00;;;21.00
19644;BMP180;9970;-36.854;174.870;2023-10-19T02:18:45;101677.00;;;20.90
19644;BMP180;9970;-36.854;174.870;2023-10-19T02:21:19;101674.00;;;20.90
19644;BMP180;9970;-36.854;174.870;2023-10-19T02:24:08;101659.00;;;20.90
19644;BMP180;9970;-36.854;174.870;2023-10-19T02:26:46;101652.00;;;20.90
19644;BMP180;9970;-36.854;174.870;2023-10-19T02:29:26;101644.00;;;20.90
19644;BMP180;9970;-36.854;174.870;2023-10-19T02:32:04;101640.00;;;20.80
19644;BMP180;9970;-36.854;174.870;2023-10-19T02:34:48;101637.00;;;20.80
19644;BMP180;9970;-36.854;174.870;2023-10-19T02:37:26;101628.00;;;20.80
19644;BMP180;9970;-36.854;174.870;2023-10-19T02:40:09;101622.00;;;20.80
19644;BMP180;9970;-36.854;174.870;2023-10-19T02:42:44;101624.00;;;20.70
19644;BMP180;9970;-36.854;174.870;2023-10-19T02:45:21;101628.00;;;20.70
19644;BMP180;9970;-36.854;174.870;2023-10-19T02:48:13;101629.00;;;20.70
19644;BMP180;9970;-36.854;174.870;2023-10-19T02:50:52;101617.00;;;20.70
19644;BMP180;9970;-36.854;174.870;2023-10-19T02:53:26;101615.00;;;20.70
19644;BMP180;9970;-36.854;174.870;2023-10-19T02:56:08;101616.00;;;20.70
19644;BMP180;9970;-36.854;174.870;2023-10-19T02:58:41;101619.00;;;20.70
19644;BMP180;9970;-36.854;174.870;2023-10-19T03:01:35;101615.00;;;20.70
19644;BMP180;9970;-36.854;174.870;2023-10-19T03:04:18;101608.00;;;20.70
19644;BMP180;9970;-36.854;174.870;2023-10-19T03:06:53;101609.00;;;20.70
19644;BMP180;9970;-36.854;174.870;2023-10-19T03:09:28;101605.00;;;20.60
19644;BMP180;9970;-36.854;174.870;2023-10-19T03:12:06;101602.00;;;20.60
19644;BMP180;9970;-36.854;174.870;2023-10-19T03:14:51;101601.00;;;20.60
19644;BMP180;9970;-36.854;174.870;2023-10-19T03:17:41;101602.00;;;20.60
19644;BMP180;9970;-36.854;174.870;2023-10-19T03:20:28;101590.00;;;20.60
19644;BMP180;9970;-36.854;174.870;2023-10-19T03:23:07;101602.00;;;20.60
19644;BMP180;9970;-36.854;174.870;2023-10-19T03:25:52;101602.00;;;20.60
19644;BMP180;9970;-36.854;174.870;2023-10-19T03:28:33;101599.00;;;20.60
19644;BMP180;9970;-36.854;174.870;2023-10-19T03:31:11;101599.00;;;20.50
19644;BMP180;9970;-36.854;174.870;2023-10-19T03:34:01;101591.00;;;20.60
19644;BMP180;9970;-36.854;174.870;2023-10-19T03:36:39;101587.00;;;20.50
19644;BMP180;9970;-36.854;174.870;2023-10-19T03:39:27;101586.00;;;20.50
19644;BMP180;9970;-36.854;174.870;2023-10-19T03:42:04;101584.00;;;20.50
19644;BMP180;9970;-36.854;174.870;2023-10-19T03:44:43;101585.00;;;20.40
19644;BMP180;9970;-36.854;174.870;2023-10-19T03:47:21;101581.00;;;20.40
19644;BMP180;9970;-36.854;174.870;2023-10-19T03:50:01;101584.00;;;20.40
19644;BMP180;9970;-36.854;174.870;2023-10-19T03:52:52;101578.00;;;20.40
19644;BMP180;9970;-36.854;174.870;2023-10-19T03:55:32;101579.00;;;20.40
19644;BMP180;9970;-36.854;174.870;2023-10-19T03:58:08;101575.00;;;20.40
19644;BMP180;9970;-36.854;174.870;2023-10-19T04:00:46;101578.00;;;20.30
19644;BMP180;9970;-36.854;174.870;2023-10-19T04:03:22;101571.00;;;20.30
19644;BMP180;9970;-36.854;174.870;2023-10-19T04:05:56;101569.00;;;20.30
19644;BMP180;9970;-36.854;174.870;2023-10-19T04:08:32;101573.00;;;20.20
19644;BMP180;9970;-36.854;174.870;2023-10-19T04:11:11;101568.00;;;20.20
19644;BMP180;9970;-36.854;174.870;2023-10-19T04:13:53;101565.00;;;20.20
19644;BMP180;9970;-36.854;174.870;2023-10-19T04:16:38;101573.00;;;20.20
19644;BMP180;9970;-36.854;174.870;2023-10-19T04:19:18;101569.00;;;20.10
19644;BMP180;9970;-36.854;174.870;2023-10-19T04:21:52;101575.00;;;20.10
19644;BMP180;9970;-36.854;174.870;2023-10-19T04:24:32;101570.00;;;20.10
19644;BMP180;9970;-36.854;174.870;2023-10-19T04:27:08;101571.00;;;20.00
19644;BMP180;9970;-36.854;174.870;2023-10-19T04:29:49;101569.00;;;20.00
19644;BMP180;9970;-36.854;174.870;2023-10-19T04:32:27;101562.00;;;20.00
19644;BMP180;9970;-36.854;174.870;2023-10-19T04:35:03;101564.00;;;19.90
19644;BMP180;9970;-36.854;174.870;2023-10-19T04:37:38;101562.00;;;19.90
19644;BMP180;9970;-36.854;174.870;2023-10-19T04:40:15;101560.00;;;19.90
19644;BMP180;9970;-36.854;174.870;2023-10-19T04:42:52;101564.00;;;19.90
19644;BMP180;9970;-36.854;174.870;2023-10-19T04:45:39;101569.00;;;19.90
19644;BMP180;9970;-36.854;174.870;2023-10-19T04:48:17;101563.00;;;19.80
19644;BMP180;9970;-36.854;174.870;2023-10-19T04:51:02;101576.00;;;19.80
19644;BMP180;9970;-36.854;174.870;2023-10-19T04:53:38;101573.00;;;19.80
19644;BMP180;9970;-36.854;174.870;2023-10-19T04:56:11;101582.00;;;19.80
19644;BMP180;9970;-36.854;174.870;2023-10-19T04:58:58;101580.00;;;19.70
19644;BMP180;9970;-36.854;174.870;2023-10-19T05:01:31;101585.00;;;19.70
19644;BMP180;9970;-36.854;174.870;2023-10-19T05:04:11;101575.00;;;19.70
19644;BMP180;9970;-36.854;174.870;2023-10-19T05:06:45;101576.00;;;19.70
19644;BMP180;9970;-36.854;174.870;2023-10-19T05:09:25;101571.00;;;19.70
19644;BMP180;9970;-36.854;174.870;2023-10-19T05:11:59;101578.00;;;19.70
19644;BMP180;9970;-36.854;174.870;2023-10-19T05:14:43;101579.00;;;19.70
19644;BMP180;9970;-36.854;174.870;2023-10-19T05:17:17;101573.00;;;19.70
19644;BMP180;9970;-36.854;174.870;2023-10-19T05:19:59;101575.00;;;19.60
19644;BMP180;9970;-36.854;174.870;2023-10-19T05:22:38;101573.00;;;19.70
19644;BMP180;9970;-36.854;174.870;2023-10-19T05:25:26;101572.00;;;19.60
19644;BMP180;9970;-36.854;174.870;2023-10-19T05:27:59;101575.00;;;19.60
19644;BMP180;9970;-36.854;174.870;2023-10-19T05:30:33;101570.00;;;19.60
19644;BMP180;9970;-36.854;174.870;2023-10-19T05:33:11;101576.00;;;19.60
19644;BMP180;9970;-36.854;174.870;2023-10-19T05:35:47;101570.00;;;19.50
19644;BMP180;9970;-36.854;174.870;2023-10-19T05:38:22;101578.00;;;19.50
19644;BMP180;9970;-36.854;174.870;2023-10-19T05:41:01;101577.00;;;19.50
19644;BMP180;9970;-36.854;174.870;2023-10-19T05:43:35;101577.00;;;19.50
19644;BMP180;9970;-36.854;174.870;2023-10-19T05:46:17;101578.00;;;19.50
19644;BMP180;9970;-36.854;174.870;2023-10-19T05:48:52;101587.00;;;19.50
19644;BMP180;9970;-36.854;174.870;2023-10-19T05:51:30;101584.00;;;19.50
19644;BMP180;9970;-36.854;174.870;2023-10-19T05:54:11;101584.00;;;19.50
19644;BMP180;9970;-36.854;174.870;2023-10-19T05:56:44;101585.00;;;19.40
19644;BMP180;9970;-36.854;174.870;2023-10-19T05:59:18;101581.00;;;19.40
19644;BMP180;9970;-36.854;174.870;2023-10-19T06:01:52;101583.00;;;19.40
19644;BMP180;9970;-36.854;174.870;2023-10-19T06:04:38;101577.00;;;19.40
19644;BMP180;9970;-36.854;174.870;2023-10-19T06:07:11;101581.00;;;19.40
19644;BMP180;9970;-36.854;174.870;2023-10-19T06:09:45;101581.00;;;19.30
19644;BMP180;9970;-36.854;174.870;2023-10-19T06:12:20;101592.00;;;19.30
19644;BMP180;9970;-36.854;174.870;2023-10-19T06:14:55;101592.00;;;19.30
19644;BMP180;9970;-36.854;174.870;2023-10-19T06:17:29;101589.00;;;19.30
19644;BMP180;9970;-36.854;174.870;2023-10-19T06:20:05;101597.00;;;19.20
19644;BMP180;9970;-36.854;174.870;2023-10-19T06:22:42;101600.00;;;19.20
19644;BMP180;9970;-36.854;174.870;2023-10-19T06:25:28;101591.00;;;19.20
19644;BMP180;9970;-36.854;174.870;2023-10-19T06:28:01;101594.00;;;19.20
19644;BMP180;9970;-36.854;174.870;2023-10-19T06:30:45;101601.00;;;19.20
19644;BMP180;9970;-36.854;174.870;2023-10-19T06:33:29;101593.00;;;19.20
19644;BMP180;9970;-36.854;174.870;2023-10-19T06:36:04;101595.00;;;19.10
19644;BMP180;9970;-36.854;174.870;2023-10-19T06:38:42;101603.00;;;19.10
19644;BMP180;9970;-36.854;174.870;2023-10-19T06:41:18;101600.00;;;19.10
19644;BMP180;9970;-36.854;174.870;2023-10-19T06:43:56;101602.00;;;19.10
19644;BMP180;9970;-36.854;174.870;2023-10-19T06:46:32;101612.00;;;19.10
19644;BMP180;9970;-36.854;174.870;2023-10-19T06:49:09;101613.00;;;19.10
19644;BMP180;9970;-36.854;174.870;2023-10-19T06:51:46;101615.00;;;19.10
19644;BMP180;9970;-36.854;174.870;2023-10-19T06:54:21;101613.00;;;19.10
19644;BMP180;9970;-36.854;174.870;2023-10-19T06:57:03;101615.00;;;19.00
19644;BMP180;9970;-36.854;174.870;2023-10-19T06:59:37;101620.00;;;19.00
19644;BMP180;9970;-36.854;174.870;2023-10-19T07:02:12;101622.00;;;19.00
19644;BMP180;9970;-36.854;174.870;2023-10-19T07:05:02;101629.00;;;19.00
19644;BMP180;9970;-36.854;174.870;2023-10-19T07:07:36;101616.00;;;19.00
19644;BMP180;9970;-36.854;174.870;2023-10-19T07:10:17;101627.00;;;19.00
19644;BMP180;9970;-36.854;174.870;2023-10-19T07:13:10;101626.00;;;18.90
19644;BMP180;9970;-36.854;174.870;2023-10-19T07:15:47;101629.00;;;18.90
19644;BMP180;9970;-36.854;174.870;2023-10-19T07:18:27;101632.00;;;18.90
19644;BMP180;9970;-36.854;174.870;2023-10-19T07:21:03;101626.00;;;18.80
19644;BMP180;9970;-36.854;174.870;2023-10-19T07:23:41;101627.00;;;18.80
19644;BMP180;9970;-36.854;174.870;2023-10-19T07:26:29;101625.00;;;18.70
19644;BMP180;9970;-36.854;174.870;2023-10-19T07:29:07;101639.00;;;18.70
19644;BMP180;9970;-36.854;174.870;2023-10-19T07:31:46;101638.00;;;18.70
19644;BMP180;9970;-36.854;174.870;2023-10-19T07:34:25;101640.00;;;18.60
19644;BMP180;9970;-36.854;174.870;2023-10-19T07:37:04;101640.00;;;18.60
19644;BMP180;9970;-36.854;174.870;2023-10-19T07:39:47;101649.00;;;18.50
19644;BMP180;9970;-36.854;174.870;2023-10-19T07:42:28;101663.00;;;18.50
19644;BMP180;9970;-36.854;174.870;2023-10-19T07:45:04;101657.00;;;18.50
19644;BMP180;9970;-36.854;174.870;2023-10-19T07:47:48;101662.00;;;18.50
19644;BMP180;9970;-36.854;174.870;2023-10-19T07:50:39;101664.00;;;18.50
19644;BMP180;9970;-36.854;174.870;2023-10-19T07:53:17;101679.00;;;18.50
19644;BMP180;9970;-36.854;174.870;2023-10-19T07:55:54;101682.00;;;18.50
19644;BMP180;9970;-36.854;174.870;2023-10-19T07:58:28;101685.00;;;18.50
19644;BMP180;9970;-36.854;174.870;2023-10-19T08:01:20;101683.00;;;18.50
19644;BMP180;9970;-36.854;174.870;2023-10-19T08:03:57;101682.00;;;18.50
19644;BMP180;9970;-36.854;174.870;2023-10-19T08:06:31;101688.00;;;18.40
19644;BMP180;9970;-36.854;174.870;2023-10-19T08:09:07;101682.00;;;18.40
19644;BMP180;9970;-36.854;174.870;2023-10-19T08:11:51;101679.00;;;18.40
19644;BMP180;9970;-36.854;174.870;2023-10-19T08:14:30;101688.00;;;18.40
19644;BMP180;9970;-36.854;174.870;2023-10-19T08:17:03;101682.00;;;18.40
19644;BMP180;9970;-36.854;174.870;2023-10-19T08:19:41;101685.00;;;18.40
19644;BMP180;9970;-36.854;174.870;2023-10-19T08:22:15;101671.00;;;18.30
19644;BMP180;9970;-36.854;174.870;2023-10-19T08:24:48;101678.00;;;18.30
19644;BMP180;9970;-36.854;174.870;2023-10-19T08:27:29;101675.00;;;18.30
19644;BMP180;9970;-36.854;174.870;2023-10-19T08:30:08;101676.00;;;18.30
19644;BMP180;9970;-36.854;174.870;2023-10-19T08:32:43;101674.00;;;18.40
19644;BMP180;9970;-36.854;174.870;2023-10-19T08:35:20;101682.00;;;18.40
19644;BMP180;9970;-36.854;174.870;2023-10-19T08:38:01;101682.00;;;18.30
19644;BMP180;9970;-36.854;174.870;2023-10-19T08:40:36;101674.00;;;18.30
19644;BMP180;9970;-36.854;174.870;2023-10-19T08:43:13;101679.00;;;18.30
19644;BMP180;9970;-36.854;174.870;2023-10-19T08:45:49;101681.00;;;18.30
19644;BMP180;9970;-36.854;174.870;2023-10-19T08:48:32;101682.00;;;18.30
19644;BMP180;9970;-36.854;174.870;2023-10-19T08:51:13;101675.00;;;18.30
19644;BMP180;9970;-36.854;174.870;2023-10-19T08:53:42;101684.00;;;18.30
19644;BMP180;9970;-36.854;174.870;2023-10-19T08:56:17;101678.00;;;18.30
19644;BMP180;9970;-36.854;174.870;2023-10-19T08:59:12;101683.00;;;18.30
19644;BMP180;9970;-36.854;174.870;2023-10-19T09:02:02;101691.00;;;18.30
19644;BMP180;9970;-36.854;174.870;2023-10-19T09:04:42;101685.00;;;18.30
19644;BMP180;9970;-36.854;174.870;2023-10-19T09:07:20;101697.00;;;18.30
19644;BMP180;9970;-36.854;174.870;2023-10-19T09:10:06;101688.00;;;18.30
19644;BMP180;9970;-36.854;174.870;2023-10-19T09:13:02;101681.00;;;18.30
19644;BMP180;9970;-36.854;174.870;2023-10-19T09:15:42;101680.00;;;18.30
19644;BMP180;9970;-36.854;174.870;2023-10-19T09:18:23;101672.00;;;18.30
19644;BMP180;9970;-36.854;174.870;2023-10-19T09:21:00;101674.00;;;18.30
19644;BMP180;9970;-36.854;174.870;2023-10-19T09:23:44;101667.00;;;18.30
19644;BMP180;9970;-36.854;174.870;2023-10-19T09:26:20;101676.00;;;18.30
19644;BMP180;9970;-36.854;174.870;2023-10-19T09:29:03;101668.00;;;18.30
19644;BMP180;9970;-36.854;174.870;2023-10-19T09:31:48;101667.00;;;18.30
19644;BMP180;9970;-36.854;174.870;2023-10-19T09:34:37;101663.00;;;18.30
19644;BMP180;9970;-36.854;174.870;2023-10-19T09:37:12;101666.00;;;18.20
19644;BMP180;9970;-36.854;174.870;2023-10-19T09:39:46;101662.00;;;18.20
19644;BMP180;9970;-36.854;174.870;2023-10-19T09:42:20;101659.00;;;18.20
19644;BMP180;9970;-36.854;174.870;2023-10-19T09:44:59;101654.00;;;18.30
19644;BMP180;9970;-36.854;174.870;2023-10-19T09:47:44;101649.00;;;18.20
19644;BMP180;9970;-36.854;174.870;2023-10-19T09:50:26;101658.00;;;18.30
19644;BMP180;9970;-36.854;174.870;2023-10-19T09:53:05;101654.00;;;18.30
19644;BMP180;9970;-36.854;174.870;2023-10-19T09:55:39;101650.00;;;18.20
19644;BMP180;9970;-36.854;174.870;2023-10-19T09:58:20;101645.00;;;18.20
19644;BMP180;9970;-36.854;174.870;2023-10-19T10:01:12;101644.00;;;18.20
19644;BMP180;9970;-36.854;174.870;2023-10-19T10:03:52;101640.00;;;18.20
19644;BMP180;9970;-36.854;174.870;2023-10-19T10:09:28;101649.00;;;18.20
19644;BMP180;9970;-36.854;174.870;2023-10-19T10:12:23;101634.00;;;18.10
19644;BMP180;9970;-36.854;174.870;2023-10-19T10:15:00;101639.00;;;18.10
19644;BMP180;9970;-36.854;174.870;2023-10-19T10:17:38;101637.00;;;18.10
19644;BMP180;9970;-36.854;174.870;2023-10-19T10:23:16;101634.00;;;18.10
19644;BMP180;9970;-36.854;174.870;2023-10-19T10:25:58;101633.00;;;18.10
19644;BMP180;9970;-36.854;174.870;2023-10-19T10:28:46;101627.00;;;18.10
19644;BMP180;9970;-36.854;174.870;2023-10-19T10:31:29;101625.00;;;18.10
19644;BMP180;9970;-36.854;174.870;2023-10-19T10:34:08;101627.00;;;18.10
19644;BMP180;9970;-36.854;174.870;2023-10-19T10:37:01;101628.00;;;18.10
19644;BMP180;9970;-36.854;174.870;2023-10-19T10:39:45;101631.00;;;18.10
19644;BMP180;9970;-36.854;174.870;2023-10-19T10:42:19;101624.00;;;18.00
19644;BMP180;9970;-36.854;174.870;2023-10-19T10:45:01;101627.00;;;18.10
19644;BMP180;9970;-36.854;174.870;2023-10-19T10:47:44;101627.00;;;18.10
19644;BMP180;9970;-36.854;174.870;2023-10-19T10:50:28;101630.00;;;18.10
19644;BMP180;9970;-36.854;174.870;2023-10-19T10:53:04;101633.00;;;18.10
19644;BMP180;9970;-36.854;174.870;2023-10-19T10:55:37;101640.00;;;18.10
19644;BMP180;9970;-36.854;174.870;2023-10-19T10:58:18;101639.00;;;18.10
19644;BMP180;9970;-36.854;174.870;2023-10-19T11:01:02;101637.00;;;18.10
19644;BMP180;9970;-36.854;174.870;2023-10-19T11:03:48;101640.00;;;18.00
19644;BMP180;9970;-36.854;174.870;2023-10-19T11:06:31;101642.00;;;18.00
19644;BMP180;9970;-36.854;174.870;2023-10-19T11:09:10;101634.00;;;18.00
19644;BMP180;9970;-36.854;174.870;2023-10-19T11:11:44;101640.00;;;18.00
19644;BMP180;9970;-36.854;174.870;2023-10-19T11:14:32;101638.00;;;18.00
19644;BMP180;9970;-36.854;174.870;2023-10-19T11:17:22;101636.00;;;18.00
19644;BMP180;9970;-36.854;174.870;2023-10-19T11:20:06;101633.00;;;18.00
19644;BMP180;9970;-36.854;174.870;2023-10-19T11:22:52;101644.00;;;18.10
19644;BMP180;9970;-36.854;174.870;2023-10-19T11:25:30;101633.00;;;18.00
19644;BMP180;9970;-36.854;174.870;2023-10-19T11:28:16;101628.00;;;18.00
19644;BMP180;9970;-36.854;174.870;2023-10-19T11:30:42;101627.00;;;18.00
19644;BMP180;9970;-36.854;174.870;2023-10-19T11:33:21;101639.00;;;18.00
19644;BMP180;9970;-36.854;174.870;2023-10-19T11:35:56;101633.00;;;18.00
19644;BMP180;9970;-36.854;174.870;2023-10-19T11:38:43;101626.00;;;18.00
19644;BMP180;9970;-36.854;174.870;2023-10-19T11:41:17;101625.00;;;18.00
19644;BMP180;9970;-36.854;174.870;2023-10-19T11:43:57;101624.00;;;18.00
19644;BMP180;9970;-36.854;174.870;2023-10-19T11:46:40;101625.00;;;18.00
19644;BMP180;9970;-36.854;174.870;2023-10-19T11:49:18;101618.00;;;18.00
19644;BMP180;9970;-36.854;174.870;2023-10-19T11:51:53;101624.00;;;18.00
19644;BMP180;9970;-36.854;174.870;2023-10-19T11:54:43;101625.00;;;18.00
19644;BMP180;9970;-36.854;174.870;2023-10-19T11:57:16;101615.00;;;18.00
19644;BMP180;9970;-36.854;174.870;2023-10-19T11:59:58;101618.00;;;18.00
19644;BMP180;9970;-36.854;174.870;2023-10-19T12:02:38;101617.00;;;18.00
19644;BMP180;9970;-36.854;174.870;2023-10-19T12:05:13;101608.00;;;18.00
19644;BMP180;9970;-36.854;174.870;2023-10-19T12:07:47;101605.00;;;18.00
19644;BMP180;9970;-36.854;174.870;2023-10-19T12:10:24;101614.00;;;18.00
19644;BMP180;9970;-36.854;174.870;2023-10-19T12:13:04;101607.00;;;18.00
19644;BMP180;9970;-36.854;174.870;2023-10-19T12:15:40;101605.00;;;18.00
19644;BMP180;9970;-36.854;174.870;2023-10-19T12:18:36;101600.00;;;18.00
19644;BMP180;9970;-36.854;174.870;2023-10-19T12:21:14;101594.00;;;18.00
19644;BMP180;9970;-36.854;174.870;2023-10-19T12:24:07;101599.00;;;18.00
19644;BMP180;9970;-36.854;174.870;2023-10-19T12:26:41;101588.00;;;18.00
19644;BMP180;9970;-36.854;174.870;2023-10-19T12:29:14;101593.00;;;18.00
19644;BMP180;9970;-36.854;174.870;2023-10-19T12:32:07;101581.00;;;18.00
19644;BMP180;9970;-36.854;174.870;2023-10-19T12:34:44;101575.00;;;18.00
19644;BMP180;9970;-36.854;174.870;2023-10-19T12:37:36;101577.00;;;17.90
19644;BMP180;9970;-36.854;174.870;2023-10-19T12:40:27;101575.00;;;17.90
19644;BMP180;9970;-36.854;174.870;2023-10-19T12:43:05;101574.00;;;17.90
19644;BMP180;9970;-36.854;174.870;2023-10-19T12:45:42;101575.00;;;17.90
19644;BMP180;9970;-36.854;174.870;2023-10-19T12:48:18;101575.00;;;17.90
19644;BMP180;9970;-36.854;174.870;2023-10-19T12:50:56;101566.00;;;17.90
19644;BMP180;9970;-36.854;174.870;2023-10-19T12:53:46;101563.00;;;17.90
19644;BMP180;9970;-36.854;174.870;2023-10-19T12:56:20;101560.00;;;17.80
19644;BMP180;9970;-36.854;174.870;2023-10-19T12:59:11;101562.00;;;17.90
19644;BMP180;9970;-36.854;174.870;2023-10-19T13:01:47;101557.00;;;17.80
19644;BMP180;9970;-36.854;174.870;2023-10-19T13:04:27;101554.00;;;17.80
19644;BMP180;9970;-36.854;174.870;2023-10-19T13:07:13;101547.00;;;17.80
19644;BMP180;9970;-36.854;174.870;2023-10-19T13:09:46;101556.00;;;17.80
19644;BMP180;9970;-36.854;174.870;2023-10-19T13:12:24;101550.00;;;17.80
19644;BMP180;9970;-36.854;174.870;2023-10-19T13:14:58;101557.00;;;17.80
19644;BMP180;9970;-36.854;174.870;2023-10-19T13:17:36;101559.00;;;17.80
19644;BMP180;9970;-36.854;174.870;2023-10-19T13:20:12;101571.00;;;17.80
19644;BMP180;9970;-36.854;174.870;2023-10-19T13:23:07;101553.00;;;17.80
19644;BMP180;9970;-36.854;174.870;2023-10-19T13:26:03;101551.00;;;17.80
19644;BMP180;9970;-36.854;174.870;2023-10-19T13:28:56;101557.00;;;17.80
19644;BMP180;9970;-36.854;174.870;2023-10-19T13:31:30;101551.00;;;17.80
19644;BMP180;9970;-36.854;174.870;2023-10-19T13:34:22;101552.00;;;17.80
19644;BMP180;9970;-36.854;174.870;2023-10-19T13:37:04;101550.00;;;17.80
19644;BMP180;9970;-36.854;174.870;2023-10-19T13:39:47;101548.00;;;17.80
19644;BMP180;9970;-36.854;174.870;2023-10-19T13:42:25;101547.00;;;17.80
19644;BMP180;9970;-36.854;174.870;2023-10-19T13:45:04;101535.00;;;17.80
19644;BMP180;9970;-36.854;174.870;2023-10-19T13:47:44;101538.00;;;17.80
19644;BMP180;9970;-36.854;174.870;2023-10-19T13:50:17;101532.00;;;17.80
19644;BMP180;9970;-36.854;174.870;2023-10-19T13:52:59;101529.00;;;17.80
19644;BMP180;9970;-36.854;174.870;2023-10-19T13:55:37;101523.00;;;17.80
19644;BMP180;9970;-36.854;174.870;2023-10-19T13:58:10;101523.00;;;17.80
19644;BMP180;9970;-36.854;174.870;2023-10-19T14:00:46;101520.00;;;17.80
19644;BMP180;9970;-36.854;174.870;2023-10-19T14:03:38;101522.00;;;17.70
19644;BMP180;9970;-36.854;174.870;2023-10-19T14:06:15;101526.00;;;17.70
19644;BMP180;9970;-36.854;174.870;2023-10-19T14:08:51;101525.00;;;17.70
19644;BMP180;9970;-36.854;174.870;2023-10-19T14:11:43;101524.00;;;17.70
19644;BMP180;9970;-36.854;174.870;2023-10-19T14:14:24;101514.00;;;17.70
19644;BMP180;9970;-36.854;174.870;2023-10-19T14:17:16;101518.00;;;17.70
19644;BMP180;9970;-36.854;174.870;2023-10-19T14:19:59;101510.00;;;17.70
19644;BMP180;9970;-36.854;174.870;2023-10-19T14:22:53;101505.00;;;17.70
19644;BMP180;9970;-36.854;174.870;2023-10-19T14:25:28;101516.00;;;17.70
19644;BMP180;9970;-36.854;174.870;2023-10-19T14:28:03;101506.00;;;17.60
19644;BMP180;9970;-36.854;174.870;2023-10-19T14:30:45;101515.00;;;17.60
19644;BMP180;9970;-36.854;174.870;2023-10-19T14:33:21;101521.00;;;17.60
19644;BMP180;9970;-36.854;174.870;2023-10-19T14:35:58;101513.00;;;17.60
19644;BMP180;9970;-36.854;174.870;2023-10-19T14:38:33;101508.00;;;17.60
19644;BMP180;9970;-36.854;174.870;2023-10-19T14:41:24;101505.00;;;17.60
19644;BMP180;9970;-36.854;174.870;2023-10-19T14:44:02;101505.00;;;17.60
19644;BMP180;9970;-36.854;174.870;2023-10-19T14:46:38;101499.00;;;17.50
19644;BMP180;9970;-36.854;174.870;2023-10-19T14:49:17;101510.00;;;17.50
19644;BMP180;9970;-36.854;174.870;2023-10-19T14:51:56;101501.00;;;17.40
19644;BMP180;9970;-36.854;174.870;2023-10-19T14:54:31;101503.00;;;17.40
19644;BMP180;9970;-36.854;174.870;2023-10-19T14:57:04;101502.00;;;17.40
19644;BMP180;9970;-36.854;174.870;2023-10-19T14:59:37;101501.00;;;17.40
19644;BMP180;9970;-36.854;174.870;2023-10-19T15:02:10;101500.00;;;17.40
19644;BMP180;9970;-36.854;174.870;2023-10-19T15:04:47;101495.00;;;17.40
19644;BMP180;9970;-36.854;174.870;2023-10-19T15:07:21;101486.00;;;17.40
19644;BMP180;9970;-36.854;174.870;2023-10-19T15:09:54;101481.00;;;17.30
19644;BMP180;9970;-36.854;174.870;2023-10-19T15:12:28;101494.00;;;17.30